createdAt,value
2022-11-24T00:01:11.219Z,3.30
2022-11-24T00:03:37.835Z,3.90
2022-11-24T00:06:07.531Z,3.40
2022-11-24T00:08:35.754Z,3.75
2022-11-24T00:11:04.096Z,3.05
2022-11-24T00:13:30.446Z,3.53
2022-11-24T00:16:24.283Z,2.67
2022-11-24T00:18:53.011Z,2.72
2022-11-24T00:23:47.765Z,3.22
2022-11-24T00:26:23.332Z,3.00
2022-11-24T00:28:51.078Z,2.72
2022-11-24T00:31:20.619Z,3.75
2022-11-24T00:33:48.843Z,2.67
2022-11-24T00:36:16.757Z,3.15
2022-11-24T00:38:43.891Z,3.17
2022-11-24T00:41:10.567Z,3.00
2022-11-24T00:43:36.933Z,2.65
2022-11-24T00:46:03.470Z,3.38
2022-11-24T00:48:30.566Z,3.20
2022-11-24T00:51:01.921Z,3.08
2022-11-24T00:53:29.307Z,2.72
2022-11-24T00:55:55.881Z,2.50
2022-11-24T00:58:24.154Z,2.25
2022-11-24T01:00:51.483Z,2.58
2022-11-24T01:03:19.480Z,3.05
2022-11-24T01:05:45.982Z,2.85
2022-11-24T01:08:12.875Z,2.97
2022-11-24T01:10:39.274Z,2.72
2022-11-24T01:13:05.688Z,3.20
2022-11-24T01:15:35.450Z,3.67
2022-11-24T01:18:02.414Z,3.17
2022-11-24T01:20:28.902Z,2.38
2022-11-24T01:22:55.275Z,2.70
2022-11-24T01:25:21.631Z,2.80
2022-11-24T01:27:48.026Z,3.78
2022-11-24T01:30:14.418Z,3.40
2022-11-24T01:32:40.767Z,2.90
2022-11-24T01:35:07.661Z,2.75
2022-11-24T01:37:34.080Z,2.45
2022-11-24T01:40:00.617Z,3.17
2022-11-24T01:42:36.427Z,3.03
2022-11-24T01:45:28.845Z,2.53
2022-11-24T01:47:55.745Z,2.60
2022-11-24T01:50:22.772Z,3.45
2022-11-24T01:52:53.951Z,2.83
2022-11-24T01:55:30.782Z,2.30
2022-11-24T01:58:07.842Z,2.80
2022-11-24T02:00:38.141Z,2.70
2022-11-24T02:03:04.553Z,3.80
2022-11-24T02:05:48.361Z,3.08
2022-11-24T02:08:26.825Z,3.05
2022-11-24T02:10:54.660Z,3.17
2022-11-24T02:13:22.271Z,2.83
2022-11-24T02:15:48.678Z,2.80
2022-11-24T02:18:15.149Z,2.38
2022-11-24T02:20:41.498Z,2.13
2022-11-24T02:23:31.003Z,2.17
2022-11-24T02:26:20.282Z,2.70
2022-11-24T02:28:47.165Z,2.50
2022-11-24T02:31:13.846Z,2.10
2022-11-24T02:33:40.745Z,2.78
2022-11-24T02:36:07.384Z,2.65
2022-11-24T02:38:35.160Z,2.00
2022-11-24T02:41:06.197Z,3.27
2022-11-24T02:43:39.052Z,2.20
2022-11-24T02:46:05.486Z,2.92
2022-11-24T02:48:31.841Z,2.45
2022-11-24T02:50:58.138Z,2.90
2022-11-24T02:53:24.458Z,2.47
2022-11-24T02:55:50.836Z,2.42
2022-11-24T02:58:17.168Z,2.00
2022-11-24T03:00:43.497Z,2.08
2022-11-24T03:03:10.188Z,2.55
2022-11-24T03:05:36.581Z,2.58
2022-11-24T03:08:03.432Z,2.40
2022-11-24T03:10:29.814Z,3.00
2022-11-24T03:12:56.234Z,2.95
2022-11-24T03:15:23.901Z,2.58
2022-11-24T03:17:50.497Z,2.30
2022-11-24T03:20:17.156Z,2.33
2022-11-24T03:22:43.476Z,3.42
2022-11-24T03:25:09.931Z,2.40
2022-11-24T03:27:36.320Z,2.63
2022-11-24T03:30:04.062Z,2.95
2022-11-24T03:32:30.461Z,2.00
2022-11-24T03:34:56.841Z,2.30
2022-11-24T03:37:23.203Z,2.50
2022-11-24T03:39:49.808Z,2.60
2022-11-24T03:42:21.249Z,2.88
2022-11-24T03:44:47.586Z,2.67
2022-11-24T03:47:13.976Z,2.70
2022-11-24T03:49:41.448Z,2.20
2022-11-24T03:52:08.512Z,2.20
2022-11-24T03:54:35.500Z,3.03
2022-11-24T03:57:02.018Z,2.50
2022-11-24T03:59:28.336Z,3.17
2022-11-24T04:01:54.866Z,2.20
2022-11-24T04:04:21.253Z,2.75
2022-11-24T04:06:47.605Z,3.13
2022-11-24T04:09:13.934Z,2.92
2022-11-24T04:11:58.982Z,2.53
2022-11-24T04:14:25.450Z,3.17
2022-11-24T04:16:51.781Z,2.70
2022-11-24T04:19:18.120Z,2.40
2022-11-24T04:21:44.517Z,2.30
2022-11-24T04:24:10.826Z,3.00
2022-11-24T04:26:37.438Z,2.75
2022-11-24T04:29:03.875Z,4.03
2022-11-24T04:31:30.267Z,3.65
2022-11-24T04:33:56.644Z,2.50
2022-11-24T04:36:22.998Z,3.42
2022-11-24T04:39:24.034Z,2.85
2022-11-24T04:41:37.996Z,2.72
2022-11-24T04:44:04.419Z,2.70
2022-11-24T04:46:31.326Z,2.70
2022-11-24T04:48:57.705Z,3.50
2022-11-24T04:51:24.165Z,2.80
2022-11-24T04:53:50.526Z,3.03
2022-11-24T04:56:16.894Z,3.65
2022-11-24T04:58:43.242Z,2.60
2022-11-24T05:01:09.793Z,2.97
2022-11-24T05:03:36.762Z,2.88
2022-11-24T05:06:03.160Z,3.88
2022-11-24T05:08:29.544Z,2.80
2022-11-24T05:10:55.907Z,3.10
2022-11-24T05:13:22.325Z,2.60
2022-11-24T05:15:48.714Z,2.63
2022-11-24T05:18:16.584Z,2.80
2022-11-24T05:20:44.708Z,2.90
2022-11-24T05:23:11.790Z,2.97
2022-11-24T05:25:38.133Z,2.75
2022-11-24T05:28:08.708Z,2.83
2022-11-24T05:30:36.852Z,2.40
2022-11-24T05:33:08.324Z,2.00
2022-11-24T05:35:36.347Z,2.92
2022-11-24T05:38:04.211Z,1.90
2022-11-24T05:40:31.553Z,2.42
2022-11-24T05:42:57.915Z,2.40
2022-11-24T05:45:24.357Z,2.58
2022-11-24T05:47:51.367Z,1.75
2022-11-24T05:50:19.264Z,2.60
2022-11-24T05:52:45.792Z,2.00
2022-11-24T05:55:13.311Z,2.15
2022-11-24T05:57:39.731Z,2.30
2022-11-24T06:00:08.722Z,2.63
2022-11-24T06:02:35.410Z,1.88
2022-11-24T06:05:01.949Z,1.70
2022-11-24T06:07:28.340Z,1.92
2022-11-24T06:09:54.713Z,2.03
2022-11-24T06:12:21.093Z,1.75
2022-11-24T06:14:47.498Z,1.45
2022-11-24T06:17:13.933Z,1.77
2022-11-24T06:19:42.189Z,1.58
2022-11-24T06:22:08.761Z,1.55
2022-11-24T06:24:35.302Z,1.88
2022-11-24T06:27:01.882Z,1.50
2022-11-24T06:29:28.245Z,1.50
2022-11-24T06:31:54.661Z,1.50
2022-11-24T06:34:21.064Z,1.70
2022-11-24T06:36:47.394Z,1.65
2022-11-24T06:39:13.739Z,1.60
2022-11-24T06:41:40.083Z,1.60
2022-11-24T06:44:06.395Z,1.20
2022-11-24T06:46:32.897Z,1.50
2022-11-24T06:49:02.341Z,1.40
2022-11-24T06:51:28.752Z,1.50
2022-11-24T06:53:55.400Z,1.40
2022-11-24T06:56:22.207Z,1.63
2022-11-24T06:58:51.225Z,1.50
2022-11-24T07:01:29.153Z,1.20
2022-11-24T07:03:56.893Z,1.65
2022-11-24T07:06:24.771Z,1.95
2022-11-24T07:08:51.736Z,1.87
2022-11-24T07:11:21.048Z,1.73
2022-11-24T07:13:48.199Z,2.53
2022-11-24T07:16:25.380Z,3.03
2022-11-24T07:18:53.192Z,2.70
2022-11-24T07:21:21.633Z,3.13
2022-11-24T07:23:49.373Z,3.63
2022-11-24T07:26:15.894Z,5.40
2022-11-24T07:28:42.316Z,3.72
2022-11-24T07:31:20.230Z,3.50
2022-11-24T07:33:51.108Z,3.67
2022-11-24T07:36:18.025Z,3.60
2022-11-24T07:38:44.583Z,3.45
2022-11-24T07:41:12.511Z,3.20
2022-11-24T07:43:39.799Z,3.50
2022-11-24T07:46:08.140Z,3.38
2022-11-24T07:48:34.677Z,3.20
2022-11-24T07:51:02.591Z,3.63
2022-11-24T07:53:29.397Z,3.78
2022-11-24T07:55:58.047Z,3.95
2022-11-24T08:00:58.425Z,4.78
2022-11-24T08:03:25.537Z,4.57
2022-11-24T08:06:22.797Z,5.07
2022-11-24T08:08:46.878Z,4.95
2022-11-24T08:11:15.640Z,5.00
2022-11-24T08:16:11.329Z,4.90
2022-11-24T08:18:38.467Z,5.20
2022-11-24T08:21:06.077Z,4.80
2022-11-24T08:23:32.814Z,5.63
2022-11-24T08:26:04.921Z,4.00
2022-11-24T08:28:32.766Z,3.88
2022-11-24T08:31:08.495Z,3.80
2022-11-24T08:33:35.261Z,3.65
2022-11-24T08:36:10.455Z,3.92
2022-11-24T08:38:37.404Z,4.18
2022-11-24T08:41:06.470Z,3.92
2022-11-24T08:43:33.442Z,3.70
2022-11-24T08:46:06.146Z,3.35
2022-11-24T08:48:33.250Z,2.92
2022-11-24T08:51:07.054Z,2.72
2022-11-24T08:53:33.634Z,3.53
2022-11-24T08:56:01.008Z,3.45
2022-11-24T08:58:28.988Z,3.10
2022-11-24T09:00:56.589Z,3.22
2022-11-24T09:03:22.970Z,3.00
2022-11-24T09:05:52.195Z,3.10
2022-11-24T09:08:19.224Z,3.33
2022-11-24T09:10:45.583Z,3.70
2022-11-24T09:13:12.009Z,3.40
2022-11-24T09:15:38.383Z,2.90
2022-11-24T09:18:05.394Z,2.78
2022-11-24T09:20:31.725Z,2.78
2022-11-24T09:22:58.113Z,3.45
2022-11-24T09:25:24.586Z,3.75
2022-11-24T09:27:51.317Z,2.70
2022-11-24T09:30:17.843Z,2.67
2022-11-24T09:32:44.249Z,2.38
2022-11-24T09:35:10.583Z,2.67
2022-11-24T09:37:37.167Z,3.10
2022-11-24T09:40:03.996Z,2.40
2022-11-24T09:42:53.285Z,3.08
2022-11-24T09:46:03.426Z,2.30
2022-11-24T09:48:50.333Z,2.80
2022-11-24T09:51:19.289Z,2.60
2022-11-24T09:53:54.973Z,2.60
2022-11-24T09:56:28.422Z,2.80
2022-11-24T09:59:02.903Z,2.90
2022-11-24T10:01:35.567Z,2.15
2022-11-24T10:04:06.279Z,2.17
2022-11-24T10:06:44.472Z,1.98
2022-11-24T10:09:40.009Z,2.53
2022-11-24T10:12:44.141Z,2.08
2022-11-24T10:15:30.786Z,2.80
2022-11-24T10:18:26.908Z,1.85
2022-11-24T10:21:17.425Z,2.30
2022-11-24T10:24:08.845Z,1.80
2022-11-24T10:26:37.868Z,1.35
2022-11-24T10:29:41.908Z,2.08
2022-11-24T10:32:35.402Z,2.65
2022-11-24T10:35:24.894Z,2.65
2022-11-24T10:37:57.876Z,2.47
2022-11-24T10:43:22.960Z,2.38
2022-11-24T10:45:50.058Z,2.45
2022-11-24T10:48:24.102Z,2.22
2022-11-24T10:50:56.608Z,2.42
2022-11-24T10:53:35.391Z,2.70
2022-11-24T10:56:05.130Z,2.22
2022-11-24T10:58:37.697Z,2.70
2022-11-24T11:01:14.066Z,2.05
2022-11-24T11:03:49.393Z,2.97
2022-11-24T11:06:23.726Z,2.00
2022-11-24T11:08:50.379Z,2.33
2022-11-24T11:11:27.164Z,2.35
2022-11-24T11:14:04.225Z,2.50
2022-11-24T11:16:53.456Z,1.70
2022-11-24T11:19:49.738Z,2.55
2022-11-24T11:22:24.046Z,3.33
2022-11-24T11:25:22.457Z,2.00
2022-11-24T11:36:12.109Z,2.53
2022-11-24T11:38:40.377Z,2.50
2022-11-24T11:41:14.324Z,2.45
2022-11-24T11:43:41.572Z,3.13
2022-11-24T11:46:07.981Z,2.05
2022-11-24T11:48:43.245Z,3.03
2022-11-24T11:51:25.634Z,2.42
2022-11-24T11:54:09.244Z,2.97
2022-11-24T11:56:46.479Z,3.03
2022-11-24T12:00:04.927Z,2.55
2022-11-24T12:02:36.917Z,2.03
2022-11-24T12:05:44.834Z,3.10
2022-11-24T12:09:03.139Z,2.28
2022-11-24T12:11:59.122Z,2.60
2022-11-24T12:14:44.029Z,3.72
2022-11-24T12:17:28.747Z,2.67
2022-11-24T12:20:35.902Z,2.92
2022-11-24T12:23:30.517Z,3.45
2022-11-24T12:26:16.805Z,2.55
2022-11-24T12:28:52.301Z,4.00
2022-11-24T12:31:35.077Z,3.67
2022-11-24T12:34:16.813Z,2.95
2022-11-24T12:37:00.062Z,3.50
2022-11-24T12:39:38.598Z,4.35
2022-11-24T12:44:50.234Z,2.88
2022-11-24T12:47:29.277Z,3.08
2022-11-24T12:50:19.112Z,3.33
2022-11-24T12:52:58.613Z,3.42
2022-11-24T12:55:27.721Z,4.22
2022-11-24T12:58:07.696Z,3.38
2022-11-24T13:00:47.919Z,3.53
2022-11-24T13:03:14.288Z,3.45
2022-11-24T13:06:03.174Z,3.75
2022-11-24T13:08:30.891Z,2.83
2022-11-24T13:11:23.458Z,3.63
2022-11-24T13:14:14.829Z,2.95
2022-11-24T13:17:21.864Z,2.63
2022-11-24T13:19:40.046Z,2.92
2022-11-24T13:22:09.312Z,2.75
2022-11-24T13:24:38.996Z,3.33
2022-11-24T13:27:26.557Z,3.33
2022-11-24T13:29:54.220Z,2.35
2022-11-24T13:32:23.539Z,2.55
2022-11-24T13:34:54.652Z,2.50
2022-11-24T13:37:31.272Z,2.25
2022-11-24T13:40:23.013Z,2.20
2022-11-24T13:43:01.121Z,2.43
2022-11-24T13:45:39.777Z,2.55
2022-11-24T13:48:18.605Z,3.00
2022-11-24T13:50:51.674Z,2.80
2022-11-24T13:53:42.676Z,2.08
2022-11-24T13:56:23.773Z,2.28
2022-11-24T13:59:02.984Z,3.70
2022-11-24T14:01:36.624Z,3.40
2022-11-24T14:04:33.977Z,2.33
2022-11-24T14:09:52.231Z,2.17
2022-11-24T14:12:26.646Z,2.50
2022-11-24T14:14:57.434Z,2.38
2022-11-24T14:17:26.664Z,2.67
2022-11-24T14:19:57.885Z,2.60
2022-11-24T14:22:26.741Z,1.88
2022-11-24T14:24:55.880Z,2.30
2022-11-24T14:27:28.447Z,2.38
2022-11-24T14:30:16.797Z,2.40
2022-11-24T14:33:00.895Z,2.08
2022-11-24T14:35:30.074Z,2.78
2022-11-24T14:37:56.672Z,2.35
2022-11-24T14:40:40.602Z,2.67
2022-11-24T14:43:17.651Z,2.72
2022-11-24T14:45:54.862Z,2.65
2022-11-24T14:48:29.000Z,2.10
2022-11-24T14:51:16.033Z,2.95
2022-11-24T14:53:45.309Z,2.60
2022-11-24T14:56:29.914Z,2.40
2022-11-24T14:58:57.682Z,2.50
2022-11-24T15:01:26.803Z,2.10
2022-11-24T15:04:32.293Z,3.05
2022-11-24T15:09:32.476Z,2.95
2022-11-24T15:12:05.751Z,1.92
2022-11-24T15:14:34.542Z,2.10
2022-11-24T15:17:01.584Z,2.85
2022-11-24T15:19:33.542Z,2.75
2022-11-24T15:22:00.312Z,4.38
2022-11-24T15:24:27.296Z,2.88
2022-11-24T15:27:01.078Z,2.40
2022-11-24T15:29:27.374Z,2.65
2022-11-24T15:31:53.779Z,2.60
2022-11-24T15:34:20.254Z,2.45
2022-11-24T15:36:46.594Z,2.50
2022-11-24T15:39:12.922Z,4.75
2022-11-24T15:41:40.657Z,4.28
2022-11-24T15:44:07.847Z,3.73
2022-11-24T15:46:38.056Z,3.47
2022-11-24T15:49:05.452Z,3.22
2022-11-24T15:51:32.004Z,3.53
2022-11-24T15:54:00.994Z,3.10
2022-11-24T15:56:33.879Z,3.53
2022-11-24T15:59:01.558Z,3.22
2022-11-24T16:01:31.416Z,3.20
2022-11-24T16:03:57.885Z,2.63
2022-11-24T16:06:25.482Z,3.67
2022-11-24T16:08:56.401Z,2.83
2022-11-24T16:11:23.362Z,2.67
2022-11-24T16:13:53.465Z,2.72
2022-11-24T16:16:22.289Z,3.15
2022-11-24T16:18:48.833Z,3.45
2022-11-24T16:21:15.233Z,3.92
2022-11-24T16:23:41.655Z,3.20
2022-11-24T16:26:08.083Z,3.78
2022-11-24T16:28:34.651Z,4.22
2022-11-24T16:31:01.355Z,3.70
2022-11-24T16:33:30.598Z,4.00
2022-11-24T16:35:57.106Z,3.22
2022-11-24T16:38:23.574Z,4.13
2022-11-24T16:40:54.579Z,5.18
2022-11-24T16:43:21.005Z,4.70
2022-11-24T16:45:59.890Z,4.88
2022-11-24T16:48:26.318Z,4.53
2022-11-24T16:50:52.711Z,4.10
2022-11-24T16:53:19.166Z,3.65
2022-11-24T16:55:56.639Z,3.90
2022-11-24T16:58:23.081Z,4.68
2022-11-24T17:00:49.959Z,4.93
2022-11-24T17:03:16.430Z,4.50
2022-11-24T17:05:42.823Z,4.65
2022-11-24T17:08:09.197Z,3.53
2022-11-24T17:10:39.556Z,3.60
2022-11-24T17:13:05.883Z,4.53
2022-11-24T17:15:35.506Z,4.28
2022-11-24T17:20:50.936Z,4.78
2022-11-24T17:23:19.480Z,4.88
2022-11-24T17:25:45.913Z,4.43
2022-11-24T17:28:12.313Z,3.85
2022-11-24T17:30:38.729Z,3.55
2022-11-24T17:33:05.119Z,3.58
2022-11-24T17:35:34.000Z,3.55
2022-11-24T17:38:01.220Z,3.70
2022-11-24T17:40:29.543Z,4.60
2022-11-24T17:43:00.223Z,3.50
2022-11-24T17:45:28.494Z,3.40
2022-11-24T17:47:56.094Z,3.58
2022-11-24T17:50:25.742Z,4.20
2022-11-24T17:52:52.336Z,3.47
2022-11-24T17:55:18.636Z,3.00
2022-11-24T17:57:45.027Z,3.45
2022-11-24T18:00:12.060Z,3.08
2022-11-24T18:02:38.713Z,2.92
2022-11-24T18:05:05.382Z,2.65
2022-11-24T18:07:31.959Z,3.15
2022-11-24T18:09:58.338Z,2.67
2022-11-24T18:12:24.765Z,3.00
2022-11-24T18:14:51.075Z,3.13
2022-11-24T18:17:17.409Z,3.45
2022-11-24T18:19:43.761Z,2.88
2022-11-24T18:22:10.253Z,3.03
2022-11-24T18:24:36.956Z,3.83
2022-11-24T18:27:03.591Z,3.60
2022-11-24T18:29:29.968Z,3.30
2022-11-24T18:31:56.443Z,3.22
2022-11-24T18:34:24.812Z,2.88
2022-11-24T18:36:54.156Z,3.20
2022-11-24T18:39:20.632Z,3.50
2022-11-24T18:41:47.188Z,2.70
2022-11-24T18:44:13.750Z,3.75
2022-11-24T18:46:40.220Z,2.58
2022-11-24T18:49:07.142Z,3.33
2022-11-24T18:51:34.117Z,2.63
2022-11-24T18:54:02.112Z,3.17
2022-11-24T18:56:29.120Z,2.60
2022-11-24T18:58:56.452Z,3.00
2022-11-24T19:01:28.260Z,3.03
2022-11-24T19:03:57.137Z,2.67
2022-11-24T19:06:28.596Z,3.15
2022-11-24T19:08:55.614Z,4.20
2022-11-24T19:11:24.856Z,3.00
2022-11-24T19:13:51.652Z,2.75
2022-11-24T19:16:19.823Z,2.67
2022-11-24T19:18:51.995Z,3.08
2022-11-24T19:21:20.505Z,3.03
2022-11-24T19:23:46.879Z,2.55
2022-11-24T19:26:13.459Z,2.50
2022-11-24T19:28:39.922Z,2.90
2022-11-24T19:31:09.989Z,2.60
2022-11-24T19:33:36.368Z,2.95
2022-11-24T19:36:09.969Z,2.55
2022-11-24T19:38:36.440Z,2.50
2022-11-24T19:41:07.812Z,3.50
2022-11-24T19:43:34.585Z,3.38
2022-11-24T19:46:06.782Z,2.70
2022-11-24T19:48:37.981Z,2.95
2022-11-24T19:51:10.440Z,2.95
2022-11-24T19:53:37.926Z,2.92
2022-11-24T19:56:12.896Z,2.60
2022-11-24T19:58:39.979Z,3.30
2022-11-24T20:01:14.969Z,3.33
2022-11-24T20:03:42.973Z,3.42
2022-11-24T20:06:11.997Z,3.30
2022-11-24T20:08:39.576Z,4.20
2022-11-24T20:11:07.299Z,2.97
2022-11-24T20:13:35.180Z,3.30
2022-11-24T20:16:11.616Z,3.88
2022-11-24T20:18:42.107Z,3.10
2022-11-24T20:21:13.998Z,3.35
2022-11-24T20:23:41.178Z,2.72
2022-11-24T20:26:12.764Z,3.13
2022-11-24T20:28:39.478Z,3.42
2022-11-24T20:31:14.706Z,3.05
2022-11-24T20:33:42.023Z,2.72
2022-11-24T20:36:11.754Z,3.00
2022-11-24T20:38:39.324Z,2.92
2022-11-24T20:41:09.521Z,2.53
2022-11-24T20:43:36.914Z,2.90
2022-11-24T20:46:05.643Z,3.08
2022-11-24T20:48:33.050Z,4.22
2022-11-24T20:51:07.997Z,2.75
2022-11-24T20:53:34.654Z,2.53
2022-11-24T20:56:06.709Z,2.80
2022-11-24T20:58:35.183Z,2.25
2022-11-24T21:01:05.789Z,2.35
2022-11-24T21:03:32.298Z,3.25
2022-11-24T21:05:58.613Z,2.92
2022-11-24T21:08:25.147Z,3.00
2022-11-24T21:10:53.240Z,3.05
2022-11-24T21:13:19.579Z,2.42
2022-11-24T21:15:46.171Z,2.60
2022-11-24T21:18:12.608Z,3.58
2022-11-24T21:20:38.943Z,2.85
2022-11-24T21:23:05.657Z,3.22
2022-11-24T21:25:32.082Z,2.83
2022-11-24T21:27:58.463Z,2.85
2022-11-24T21:30:25.554Z,2.67
2022-11-24T21:32:51.877Z,2.50
2022-11-24T21:35:18.237Z,3.35
2022-11-24T21:37:44.544Z,4.07
2022-11-24T21:40:11.339Z,2.67
2022-11-24T21:42:37.731Z,3.00
2022-11-24T21:45:04.596Z,2.38
2022-11-24T21:47:31.001Z,2.72
2022-11-24T21:49:57.336Z,2.58
2022-11-24T21:52:23.723Z,3.03
2022-11-24T21:54:50.260Z,2.83
2022-11-24T21:57:16.738Z,2.75
2022-11-24T21:59:43.140Z,2.95
2022-11-24T22:02:13.421Z,2.35
2022-11-24T22:04:39.833Z,3.30
2022-11-24T22:07:06.322Z,2.25
2022-11-24T22:09:33.835Z,2.90
2022-11-24T22:12:00.807Z,3.00
2022-11-24T22:14:27.175Z,2.53
2022-11-24T22:16:53.506Z,3.42
2022-11-24T22:19:19.979Z,2.38
2022-11-24T22:21:46.349Z,2.15
2022-11-24T22:24:12.922Z,1.92
2022-11-24T22:26:39.310Z,2.63
2022-11-24T22:29:06.222Z,3.58
2022-11-24T22:31:33.259Z,2.38
2022-11-24T22:34:00.757Z,2.60
2022-11-24T22:36:28.921Z,2.72
2022-11-24T22:38:56.292Z,2.90
2022-11-24T22:41:23.515Z,2.53
2022-11-24T22:43:50.239Z,2.65
2022-11-24T22:46:22.463Z,2.78
2022-11-24T22:48:50.304Z,2.05
2022-11-24T22:51:19.431Z,3.60
2022-11-24T22:53:51.114Z,2.70
2022-11-24T22:56:18.434Z,2.03
2022-11-24T22:58:45.473Z,2.92
2022-11-24T23:01:19.029Z,2.38
2022-11-24T23:03:45.909Z,2.35
2022-11-24T23:06:17.640Z,2.50
2022-11-24T23:08:44.411Z,2.38
2022-11-24T23:11:14.031Z,2.72
2022-11-24T23:13:41.046Z,2.50
2022-11-24T23:16:18.388Z,2.92
2022-11-24T23:18:51.020Z,2.85
2022-11-24T23:21:29.630Z,2.47
2022-11-24T23:23:57.653Z,3.20
2022-11-24T23:26:27.591Z,2.55
2022-11-24T23:28:54.088Z,3.03
2022-11-24T23:31:24.387Z,2.75
2022-11-24T23:33:50.770Z,3.20
2022-11-24T23:36:19.023Z,2.53
2022-11-24T23:38:46.181Z,2.50
2022-11-24T23:41:15.130Z,3.05
2022-11-24T23:43:42.650Z,2.90
2022-11-24T23:46:14.924Z,2.53
2022-11-24T23:48:41.583Z,2.30
2022-11-24T23:51:19.432Z,2.90
2022-11-24T23:53:46.580Z,3.53
2022-11-24T23:56:15.765Z,2.58
2022-11-24T23:58:42.201Z,2.67
